createdAt,value
2023-04-27T00:00:44.095Z,75.89
2023-04-27T00:05:46.685Z,75.59
2023-04-27T00:10:49.852Z,75.19
2023-04-27T00:15:52.037Z,74.89
2023-04-27T00:21:01.568Z,74.57
2023-04-27T00:26:03.900Z,74.44
2023-04-27T00:31:13.336Z,74.40
2023-04-27T00:36:18.361Z,74.17
2023-04-27T00:41:24.479Z,74.05
2023-04-27T00:46:37.874Z,74.25
2023-04-27T00:51:40.994Z,74.43
2023-04-27T00:56:43.189Z,73.76
2023-04-27T01:01:46.889Z,73.94
2023-04-27T01:06:49.323Z,74.03
2023-04-27T01:11:51.518Z,73.76
2023-04-27T01:16:54.099Z,73.98
2023-04-27T01:21:56.303Z,73.77
2023-04-27T01:27:01.843Z,73.54
2023-04-27T01:32:29.389Z,73.20
2023-04-27T01:40:32.571Z,73.76
2023-04-27T01:45:34.704Z,73.60
2023-04-27T01:50:36.894Z,73.99
2023-04-27T01:55:45.037Z,73.45
2023-04-27T02:00:47.220Z,73.77
2023-04-27T02:05:49.459Z,73.34
2023-04-27T02:10:51.841Z,73.20
2023-04-27T02:15:56.074Z,73.13
2023-04-27T02:20:58.728Z,73.26
2023-04-27T02:26:01.101Z,73.44
2023-04-27T02:31:03.413Z,73.81
2023-04-27T02:36:05.922Z,73.82
2023-04-27T02:44:37.396Z,74.05
2023-04-27T02:49:40.246Z,74.54
2023-04-27T02:54:42.672Z,74.04
2023-04-27T02:59:45.128Z,74.51
2023-04-27T03:04:47.376Z,74.58
2023-04-27T03:09:49.560Z,74.51
2023-04-27T03:14:51.531Z,74.71
2023-04-27T03:19:53.616Z,74.78
2023-04-27T03:24:58.750Z,74.48
2023-04-27T03:30:00.678Z,75.07
2023-04-27T03:35:03.213Z,74.47
2023-04-27T03:40:08.924Z,74.61
2023-04-27T03:45:12.425Z,74.76
2023-04-27T03:50:18.048Z,74.80
2023-04-27T03:55:20.287Z,75.38
2023-04-27T04:08:35.051Z,75.35
2023-04-27T04:13:37.293Z,75.61
2023-04-27T04:18:39.689Z,75.51
2023-04-27T04:24:18.975Z,75.49
2023-04-27T04:30:01.929Z,75.38
2023-04-27T04:35:47.844Z,75.90
2023-04-27T04:40:50.636Z,76.19
2023-04-27T04:45:52.701Z,75.85
2023-04-27T04:50:54.460Z,76.83
2023-04-27T04:55:57.107Z,76.24
2023-04-27T05:00:59.041Z,76.25
2023-04-27T05:06:02.047Z,76.77
2023-04-27T05:11:04.144Z,76.58
2023-04-27T05:16:06.612Z,77.58
2023-04-27T05:21:20.770Z,76.44
2023-04-27T05:26:22.840Z,76.47
2023-04-27T05:31:28.560Z,77.50
2023-04-27T05:36:33.822Z,76.46
2023-04-27T05:41:36.497Z,76.74
2023-04-27T05:46:38.792Z,76.41
2023-04-27T05:51:41.438Z,76.25
2023-04-27T05:56:43.423Z,76.33
2023-04-27T06:01:45.724Z,76.55
2023-04-27T06:06:47.784Z,75.90
2023-04-27T06:11:49.620Z,76.10
2023-04-27T06:16:51.806Z,75.96
2023-04-27T06:21:55.022Z,75.67
2023-04-27T06:26:57.147Z,75.29
2023-04-27T06:31:59.281Z,75.06
2023-04-27T06:37:01.446Z,74.62
2023-04-27T06:42:06.510Z,74.26
2023-04-27T06:47:08.573Z,73.65
2023-04-27T06:52:10.798Z,73.13
2023-04-27T06:57:12.923Z,72.71
2023-04-27T07:02:24.982Z,71.74
2023-04-27T07:07:27.517Z,71.39
2023-04-27T07:12:33.533Z,68.54
2023-04-27T07:17:35.662Z,69.70
2023-04-27T07:22:37.932Z,69.25
2023-04-27T07:27:39.957Z,68.58
2023-04-27T07:32:42.281Z,68.36
2023-04-27T07:37:45.632Z,67.90
2023-04-27T07:42:48.217Z,67.42
2023-04-27T07:47:50.117Z,66.43
2023-04-27T07:52:57.163Z,65.34
2023-04-27T07:57:59.249Z,64.79
2023-04-27T08:03:01.466Z,64.63
2023-04-27T08:08:03.646Z,64.15
2023-04-27T08:13:06.310Z,62.95
2023-04-27T08:18:08.311Z,62.14
2023-04-27T08:23:10.618Z,61.24
2023-04-27T08:28:13.823Z,60.55
2023-04-27T08:33:16.265Z,60.31
2023-04-27T08:38:18.537Z,60.05
2023-04-27T08:43:20.516Z,59.75
2023-04-27T08:48:22.684Z,58.29
2023-04-27T08:53:24.612Z,57.94
2023-04-27T08:58:42.195Z,54.87
2023-04-27T09:03:49.233Z,56.64
2023-04-27T09:08:51.457Z,56.80
2023-04-27T09:13:53.655Z,56.00
2023-04-27T09:18:57.467Z,55.48
2023-04-27T09:24:10.576Z,52.95
2023-04-27T09:29:41.028Z,51.95
2023-04-27T09:34:43.577Z,53.46
2023-04-27T09:39:46.534Z,54.07
2023-04-27T09:44:54.480Z,53.21
2023-04-27T09:49:59.928Z,52.12
2023-04-27T09:55:03.607Z,53.19
2023-04-27T10:00:34.575Z,52.00
2023-04-27T10:06:06.715Z,51.21
2023-04-27T10:11:16.378Z,51.42
2023-04-27T10:16:18.645Z,52.87
2023-04-27T10:21:27.655Z,52.53
2023-04-27T10:26:29.719Z,52.10
2023-04-27T10:31:31.836Z,52.10
2023-04-27T10:36:43.303Z,50.75
2023-04-27T10:41:53.913Z,49.99
2023-04-27T10:47:01.508Z,50.59
2023-04-27T10:52:05.110Z,51.06
2023-04-27T10:57:11.499Z,49.34
2023-04-27T11:02:13.718Z,50.83
2023-04-27T11:07:24.122Z,48.75
2023-04-27T11:12:26.326Z,49.78
2023-04-27T11:17:32.304Z,49.07
2023-04-27T11:22:50.482Z,49.22
2023-04-27T11:27:57.938Z,49.53
2023-04-27T11:33:08.832Z,48.01
2023-04-27T11:38:24.681Z,47.63
2023-04-27T11:43:27.852Z,49.17
2023-04-27T11:48:29.951Z,49.26
2023-04-27T11:53:34.388Z,49.22
2023-04-27T11:58:38.644Z,49.08
2023-04-27T12:03:41.237Z,49.38
2023-04-27T12:08:43.388Z,48.93
2023-04-27T12:13:47.273Z,49.50
2023-04-27T12:18:50.625Z,48.80
2023-04-27T12:23:52.851Z,48.28
2023-04-27T12:28:58.270Z,47.63
2023-04-27T12:34:00.364Z,49.52
2023-04-27T12:39:13.831Z,48.03
2023-04-27T12:44:17.223Z,48.60
2023-04-27T12:49:19.329Z,48.65
2023-04-27T12:54:21.848Z,49.11
2023-04-27T12:59:24.440Z,50.10
2023-04-27T13:04:26.610Z,50.13
2023-04-27T13:09:29.144Z,49.92
2023-04-27T13:14:34.223Z,50.12
2023-04-27T13:19:38.655Z,49.91
2023-04-27T13:24:42.165Z,50.55
2023-04-27T13:29:44.362Z,50.90
2023-04-27T13:34:46.402Z,50.34
2023-04-27T13:39:48.390Z,50.61
2023-04-27T13:44:50.882Z,50.76
2023-04-27T13:49:52.844Z,50.54
2023-04-27T13:54:54.830Z,51.22
2023-04-27T13:59:58.837Z,51.65
2023-04-27T14:05:01.122Z,52.22
2023-04-27T14:10:04.289Z,52.01
2023-04-27T14:15:06.883Z,52.45
2023-04-27T14:20:09.689Z,53.37
2023-04-27T14:25:12.096Z,53.36
2023-04-27T14:30:14.416Z,53.33
2023-04-27T14:35:16.719Z,53.82
2023-04-27T14:40:19.149Z,53.41
2023-04-27T14:45:23.586Z,53.18
2023-04-27T14:50:29.171Z,53.66
2023-04-27T14:55:31.667Z,53.89
2023-04-27T15:00:33.599Z,54.20
2023-04-27T15:05:35.817Z,54.34
2023-04-27T15:10:38.159Z,54.19
2023-04-27T15:15:40.273Z,54.37
2023-04-27T15:20:51.499Z,54.05
2023-04-27T15:25:58.631Z,53.73
2023-04-27T15:31:00.805Z,54.27
2023-04-27T15:36:03.156Z,54.45
2023-04-27T15:41:05.163Z,54.60
2023-04-27T15:46:07.217Z,55.01
2023-04-27T15:51:10.434Z,55.17
2023-04-27T15:56:18.580Z,55.49
2023-04-27T16:01:23.328Z,55.73
2023-04-27T16:06:33.527Z,56.31
2023-04-27T16:11:38.705Z,57.17
2023-04-27T16:16:41.157Z,57.83
2023-04-27T16:21:43.371Z,58.79
2023-04-27T16:26:47.303Z,59.53
2023-04-27T16:31:53.333Z,60.45
2023-04-27T16:36:55.759Z,60.24
2023-04-27T16:41:58.858Z,60.93
2023-04-27T16:47:01.068Z,61.29
2023-04-27T16:52:05.355Z,61.89
2023-04-27T16:57:07.979Z,63.08
2023-04-27T17:02:23.213Z,64.14
2023-04-27T17:07:28.717Z,63.96
2023-04-27T17:12:31.248Z,63.62
2023-04-27T17:17:34.164Z,63.68
2023-04-27T17:22:36.892Z,63.71
2023-04-27T17:27:38.982Z,63.66
2023-04-27T17:32:41.405Z,64.76
2023-04-27T17:37:43.445Z,65.00
2023-04-27T17:42:52.961Z,65.75
2023-04-27T17:47:55.384Z,65.81
2023-04-27T17:52:57.900Z,65.99
2023-04-27T17:57:59.954Z,68.02
2023-04-27T18:03:04.913Z,69.42
2023-04-27T18:08:07.230Z,70.29
2023-04-27T18:13:09.336Z,71.18
2023-04-27T18:18:23.241Z,72.87
2023-04-27T18:23:27.047Z,73.78
2023-04-27T18:28:29.087Z,75.92
2023-04-27T18:33:31.391Z,76.34
2023-04-27T18:38:33.683Z,77.42
2023-04-27T18:43:39.042Z,78.62
2023-04-27T18:48:41.368Z,79.75
2023-04-27T18:53:43.276Z,79.74
2023-04-27T18:58:46.128Z,79.89
2023-04-27T19:03:48.396Z,80.41
2023-04-27T19:08:50.618Z,80.30
2023-04-27T19:13:53.954Z,80.99
2023-04-27T19:18:56.034Z,81.28
2023-04-27T19:24:00.497Z,80.84
2023-04-27T19:29:03.145Z,80.56
2023-04-27T19:34:05.287Z,80.31
2023-04-27T19:39:07.776Z,80.07
2023-04-27T19:44:10.092Z,80.56
2023-04-27T19:49:12.301Z,81.08
2023-04-27T19:54:14.920Z,81.15
2023-04-27T19:59:17.202Z,81.18
2023-04-27T20:04:19.423Z,81.00
2023-04-27T20:09:22.016Z,80.96
2023-04-27T20:14:25.002Z,81.00
2023-04-27T20:19:27.382Z,80.94
2023-04-27T20:24:29.582Z,81.10
2023-04-27T20:29:32.654Z,81.42
2023-04-27T20:34:35.393Z,81.27
2023-04-27T20:39:37.498Z,81.41
2023-04-27T20:44:39.566Z,81.26
2023-04-27T20:49:45.991Z,81.49
2023-04-27T20:54:47.986Z,81.62
2023-04-27T20:59:50.210Z,81.66
2023-04-27T21:04:53.131Z,81.74
2023-04-27T21:09:55.327Z,81.80
2023-04-27T21:14:57.577Z,81.71
2023-04-27T21:19:59.672Z,81.48
2023-04-27T21:25:01.947Z,81.25
2023-04-27T21:30:04.349Z,80.81
2023-04-27T21:35:08.018Z,80.76
2023-04-27T21:40:10.518Z,80.46
2023-04-27T21:45:12.570Z,80.57
2023-04-27T21:50:16.503Z,80.77
2023-04-27T21:55:19.001Z,81.09
2023-04-27T22:00:21.329Z,81.09
2023-04-27T22:05:27.032Z,81.40
2023-04-27T22:10:31.821Z,81.53
2023-04-27T22:15:34.217Z,81.81
2023-04-27T22:20:36.302Z,81.90
2023-04-27T22:25:38.618Z,82.14
2023-04-27T22:30:42.218Z,82.09
2023-04-27T22:35:44.416Z,82.17
2023-04-27T22:40:46.578Z,82.55
2023-04-27T22:45:48.542Z,82.79
2023-04-27T22:50:50.559Z,82.90
2023-04-27T22:55:52.840Z,82.98
2023-04-27T23:00:55.101Z,83.29
2023-04-27T23:05:57.764Z,83.51
2023-04-27T23:11:03.698Z,83.58
2023-04-27T23:16:07.028Z,83.81
2023-04-27T23:21:11.412Z,83.98
2023-04-27T23:26:16.568Z,83.92
2023-04-27T23:31:18.693Z,83.91
2023-04-27T23:36:21.170Z,83.80
2023-04-27T23:41:23.516Z,83.95
2023-04-27T23:46:28.330Z,83.74
2023-04-27T23:51:30.967Z,83.65
2023-04-27T23:56:32.897Z,83.49
